sensor_id;sensor_type;location;lat;lon;timestamp;temperature;humidity
57753;DHT22;43583;53.132;6.574;2022-12-29T00:01:48;10.10;99.90
57753;DHT22;43583;53.132;6.574;2022-12-29T00:04:14;10.10;99.90
57753;DHT22;43583;53.132;6.574;2022-12-29T00:06:41;10.10;99.90
57753;DHT22;43583;53.132;6.574;2022-12-29T00:09:07;10.20;99.90
57753;DHT22;43583;53.132;6.574;2022-12-29T00:11:33;10.20;99.90
57753;DHT22;43583;53.132;6.574;2022-12-29T00:13:59;10.20;99.90
57753;DHT22;43583;53.132;6.574;2022-12-29T00:16:44;10.20;99.90
57753;DHT22;43583;53.132;6.574;2022-12-29T00:19:11;10.20;99.90
57753;DHT22;43583;53.132;6.574;2022-12-29T00:21:57;10.20;99.90
57753;DHT22;43583;53.132;6.574;2022-12-29T00:24:43;10.20;99.90
57753;DHT22;43583;53.132;6.574;2022-12-29T00:27:29;10.20;99.90
57753;DHT22;43583;53.132;6.574;2022-12-29T00:30:18;10.20;99.90
57753;DHT22;43583;53.132;6.574;2022-12-29T00:33:18;10.30;99.90
57753;DHT22;43583;53.132;6.574;2022-12-29T00:36:07;10.30;99.90
57753;DHT22;43583;53.132;6.574;2022-12-29T00:38:36;10.30;99.90
57753;DHT22;43583;53.132;6.574;2022-12-29T00:41:21;10.30;99.90
57753;DHT22;43583;53.132;6.574;2022-12-29T00:44:07;10.30;99.90
57753;DHT22;43583;53.132;6.574;2022-12-29T00:46:36;10.30;99.90
57753;DHT22;43583;53.132;6.574;2022-12-29T00:49:03;10.30;99.90
57753;DHT22;43583;53.132;6.574;2022-12-29T00:51:47;10.30;99.90
57753;DHT22;43583;53.132;6.574;2022-12-29T00:54:14;10.30;99.90
57753;DHT22;43583;53.132;6.574;2022-12-29T00:56:40;10.40;99.90
57753;DHT22;43583;53.132;6.574;2022-12-29T00:59:09;10.40;99.90
57753;DHT22;43583;53.132;6.574;2022-12-29T01:01:36;10.40;99.90
57753;DHT22;43583;53.132;6.574;2022-12-29T01:04:03;10.40;99.90
57753;DHT22;43583;53.132;6.574;2022-12-29T01:06:28;10.40;99.90
57753;DHT22;43583;53.132;6.574;2022-12-29T01:08:54;10.40;99.90
57753;DHT22;43583;53.132;6.574;2022-12-29T01:11:38;10.40;99.90
57753;DHT22;43583;53.132;6.574;2022-12-29T01:14:04;10.40;99.90
57753;DHT22;43583;53.132;6.574;2022-12-29T01:16:30;10.40;99.90
57753;DHT22;43583;53.132;6.574;2022-12-29T01:18:56;10.40;99.90
57753;DHT22;43583;53.132;6.574;2022-12-29T01:21:21;10.40;99.90
57753;DHT22;43583;53.132;6.574;2022-12-29T01:23:47;10.40;99.90
57753;DHT22;43583;53.132;6.574;2022-12-29T01:26:14;10.40;99.90
57753;DHT22;43583;53.132;6.574;2022-12-29T01:28:41;10.40;99.90
57753;DHT22;43583;53.132;6.574;2022-12-29T01:31:08;10.40;99.90
57753;DHT22;43583;53.132;6.574;2022-12-29T01:33:33;10.40;99.90
57753;DHT22;43583;53.132;6.574;2022-12-29T01:36:03;10.40;99.90
57753;DHT22;43583;53.132;6.574;2022-12-29T01:38:30;10.40;99.90
57753;DHT22;43583;53.132;6.574;2022-12-29T01:40:55;10.50;99.90
57753;DHT22;43583;53.132;6.574;2022-12-29T01:43:21;10.40;99.90
57753;DHT22;43583;53.132;6.574;2022-12-29T01:45:55;10.40;99.90
57753;DHT22;43583;53.132;6.574;2022-12-29T01:48:21;10.40;99.90
57753;DHT22;43583;53.132;6.574;2022-12-29T01:50:50;10.40;99.90
57753;DHT22;43583;53.132;6.574;2022-12-29T01:53:26;10.40;99.90
57753;DHT22;43583;53.132;6.574;2022-12-29T01:55:57;10.40;99.90
57753;DHT22;43583;53.132;6.574;2022-12-29T01:58:29;10.40;99.90
57753;DHT22;43583;53.132;6.574;2022-12-29T02:00:55;10.40;99.90
57753;DHT22;43583;53.132;6.574;2022-12-29T02:03:23;10.40;99.90
57753;DHT22;43583;53.132;6.574;2022-12-29T02:06:12;10.40;99.90
57753;DHT22;43583;53.132;6.574;2022-12-29T02:08:41;10.40;99.90
57753;DHT22;43583;53.132;6.574;2022-12-29T02:11:07;10.40;99.90
57753;DHT22;43583;53.132;6.574;2022-12-29T02:13:32;10.40;99.90
57753;DHT22;43583;53.132;6.574;2022-12-29T02:16:21;10.40;99.90
57753;DHT22;43583;53.132;6.574;2022-12-29T02:33:21;10.40;99.90
57753;DHT22;43583;53.132;6.574;2022-12-29T02:36:15;10.40;99.90
57753;DHT22;43583;53.132;6.574;2022-12-29T02:38:49;10.40;99.90
57753;DHT22;43583;53.132;6.574;2022-12-29T02:44:45;10.40;99.90
57753;DHT22;43583;53.132;6.574;2022-12-29T02:47:48;10.40;99.90
57753;DHT22;43583;53.132;6.574;2022-12-29T02:50:23;10.40;99.90
57753;DHT22;43583;53.132;6.574;2022-12-29T02:53:04;10.40;99.90
57753;DHT22;43583;53.132;6.574;2022-12-29T02:55:30;10.40;99.90
57753;DHT22;43583;53.132;6.574;2022-12-29T02:58:19;10.40;99.90
57753;DHT22;43583;53.132;6.574;2022-12-29T03:06:33;10.40;99.90
57753;DHT22;43583;53.132;6.574;2022-12-29T03:14:58;10.40;99.90
57753;DHT22;43583;53.132;6.574;2022-12-29T03:17:56;10.40;99.90
57753;DHT22;43583;53.132;6.574;2022-12-29T03:20:31;10.40;99.90
57753;DHT22;43583;53.132;6.574;2022-12-29T03:23:01;10.40;99.90
57753;DHT22;43583;53.132;6.574;2022-12-29T03:25:30;10.40;99.90
57753;DHT22;43583;53.132;6.574;2022-12-29T03:28:01;10.40;99.90
57753;DHT22;43583;53.132;6.574;2022-12-29T03:30:30;10.40;99.90
57753;DHT22;43583;53.132;6.574;2022-12-29T03:33:00;10.40;99.90
57753;DHT22;43583;53.132;6.574;2022-12-29T03:35:30;10.30;99.90
57753;DHT22;43583;53.132;6.574;2022-12-29T03:38:11;10.30;99.90
57753;DHT22;43583;53.132;6.574;2022-12-29T03:40:40;10.20;99.90
57753;DHT22;43583;53.132;6.574;2022-12-29T03:43:08;10.10;99.90
57753;DHT22;43583;53.132;6.574;2022-12-29T03:45:34;10.10;99.90
57753;DHT22;43583;53.132;6.574;2022-12-29T03:47:59;10.10;99.90
57753;DHT22;43583;53.132;6.574;2022-12-29T03:50:25;10.10;99.90
57753;DHT22;43583;53.132;6.574;2022-12-29T03:52:50;10.10;99.90
57753;DHT22;43583;53.132;6.574;2022-12-29T03:55:16;10.10;99.90
57753;DHT22;43583;53.132;6.574;2022-12-29T03:57:42;10.10;99.90
57753;DHT22;43583;53.132;6.574;2022-12-29T04:00:08;10.10;99.90
57753;DHT22;43583;53.132;6.574;2022-12-29T04:02:33;10.10;99.90
57753;DHT22;43583;53.132;6.574;2022-12-29T04:04:59;10.10;99.90
57753;DHT22;43583;53.132;6.574;2022-12-29T04:07:24;10.10;99.90
57753;DHT22;43583;53.132;6.574;2022-12-29T04:09:50;10.10;99.90
57753;DHT22;43583;53.132;6.574;2022-12-29T04:12:16;10.10;99.90
57753;DHT22;43583;53.132;6.574;2022-12-29T04:14:41;10.10;99.90
57753;DHT22;43583;53.132;6.574;2022-12-29T04:17:07;10.20;99.90
57753;DHT22;43583;53.132;6.574;2022-12-29T04:19:33;10.20;99.90
57753;DHT22;43583;53.132;6.574;2022-12-29T04:21:58;10.10;99.90
57753;DHT22;43583;53.132;6.574;2022-12-29T04:24:24;10.10;99.90
57753;DHT22;43583;53.132;6.574;2022-12-29T04:26:49;10.10;99.90
57753;DHT22;43583;53.132;6.574;2022-12-29T04:29:15;10.10;99.90
57753;DHT22;43583;53.132;6.574;2022-12-29T04:31:41;10.10;99.90
57753;DHT22;43583;53.132;6.574;2022-12-29T04:34:07;10.10;99.90
57753;DHT22;43583;53.132;6.574;2022-12-29T04:36:32;10.10;99.90
57753;DHT22;43583;53.132;6.574;2022-12-29T04:38:58;10.10;99.90
57753;DHT22;43583;53.132;6.574;2022-12-29T04:41:24;10.10;99.90
57753;DHT22;43583;53.132;6.574;2022-12-29T04:43:49;10.10;99.90
57753;DHT22;43583;53.132;6.574;2022-12-29T04:46:15;10.10;99.90
57753;DHT22;43583;53.132;6.574;2022-12-29T04:48:40;10.10;99.90
57753;DHT22;43583;53.132;6.574;2022-12-29T04:51:06;10.10;99.90
57753;DHT22;43583;53.132;6.574;2022-12-29T04:53:32;10.10;99.90
57753;DHT22;43583;53.132;6.574;2022-12-29T04:55:57;10.10;99.90
57753;DHT22;43583;53.132;6.574;2022-12-29T04:58:23;10.00;99.90
57753;DHT22;43583;53.132;6.574;2022-12-29T05:00:49;10.00;99.90
57753;DHT22;43583;53.132;6.574;2022-12-29T05:03:15;9.90;99.90
57753;DHT22;43583;53.132;6.574;2022-12-29T05:05:40;9.90;99.90
57753;DHT22;43583;53.132;6.574;2022-12-29T05:08:06;9.90;99.90
57753;DHT22;43583;53.132;6.574;2022-12-29T05:10:31;9.90;99.90
57753;DHT22;43583;53.132;6.574;2022-12-29T05:12:57;9.80;99.90
57753;DHT22;43583;53.132;6.574;2022-12-29T05:15:23;9.70;99.90
57753;DHT22;43583;53.132;6.574;2022-12-29T05:17:49;9.70;99.90
57753;DHT22;43583;53.132;6.574;2022-12-29T05:20:14;9.60;99.90
57753;DHT22;43583;53.132;6.574;2022-12-29T05:22:40;9.60;99.90
57753;DHT22;43583;53.132;6.574;2022-12-29T05:25:06;9.50;99.90
57753;DHT22;43583;53.132;6.574;2022-12-29T05:27:31;9.50;99.90
57753;DHT22;43583;53.132;6.574;2022-12-29T05:29:57;9.50;99.90
57753;DHT22;43583;53.132;6.574;2022-12-29T05:32:22;9.40;99.90
57753;DHT22;43583;53.132;6.574;2022-12-29T05:34:48;9.40;99.90
57753;DHT22;43583;53.132;6.574;2022-12-29T05:37:14;9.40;99.90
57753;DHT22;43583;53.132;6.574;2022-12-29T05:39:39;9.40;99.90
57753;DHT22;43583;53.132;6.574;2022-12-29T05:42:05;9.30;99.90
57753;DHT22;43583;53.132;6.574;2022-12-29T05:44:30;9.30;99.90
57753;DHT22;43583;53.132;6.574;2022-12-29T05:46:56;9.30;99.90
57753;DHT22;43583;53.132;6.574;2022-12-29T05:49:21;9.30;99.90
57753;DHT22;43583;53.132;6.574;2022-12-29T05:51:47;9.30;99.90
57753;DHT22;43583;53.132;6.574;2022-12-29T05:54:13;9.20;99.90
57753;DHT22;43583;53.132;6.574;2022-12-29T05:56:38;9.20;99.90
57753;DHT22;43583;53.132;6.574;2022-12-29T05:59:04;9.10;99.90
57753;DHT22;43583;53.132;6.574;2022-12-29T06:01:29;9.20;99.90
57753;DHT22;43583;53.132;6.574;2022-12-29T06:03:55;9.20;99.90
57753;DHT22;43583;53.132;6.574;2022-12-29T06:06:20;9.30;99.90
57753;DHT22;43583;53.132;6.574;2022-12-29T06:08:46;9.40;99.90
57753;DHT22;43583;53.132;6.574;2022-12-29T06:11:11;9.40;99.90
57753;DHT22;43583;53.132;6.574;2022-12-29T06:13:37;9.40;99.90
57753;DHT22;43583;53.132;6.574;2022-12-29T06:16:03;9.40;99.90
57753;DHT22;43583;53.132;6.574;2022-12-29T06:18:29;9.40;99.90
57753;DHT22;43583;53.132;6.574;2022-12-29T06:21:02;9.40;99.90
57753;DHT22;43583;53.132;6.574;2022-12-29T06:23:28;9.30;99.90
57753;DHT22;43583;53.132;6.574;2022-12-29T06:25:54;9.30;99.90
57753;DHT22;43583;53.132;6.574;2022-12-29T06:28:20;9.40;99.90
57753;DHT22;43583;53.132;6.574;2022-12-29T06:30:46;9.30;99.90
57753;DHT22;43583;53.132;6.574;2022-12-29T06:33:12;9.30;99.90
57753;DHT22;43583;53.132;6.574;2022-12-29T06:35:38;9.30;99.90
57753;DHT22;43583;53.132;6.574;2022-12-29T06:38:03;9.20;99.90
57753;DHT22;43583;53.132;6.574;2022-12-29T06:40:29;9.10;99.90
57753;DHT22;43583;53.132;6.574;2022-12-29T06:42:55;9.10;99.90
57753;DHT22;43583;53.132;6.574;2022-12-29T06:45:21;9.10;99.90
57753;DHT22;43583;53.132;6.574;2022-12-29T06:47:46;9.10;99.90
57753;DHT22;43583;53.132;6.574;2022-12-29T06:50:12;9.10;99.90
57753;DHT22;43583;53.132;6.574;2022-12-29T06:52:37;9.10;99.90
57753;DHT22;43583;53.132;6.574;2022-12-29T06:55:03;9.00;99.90
57753;DHT22;43583;53.132;6.574;2022-12-29T06:57:29;9.10;99.90
57753;DHT22;43583;53.132;6.574;2022-12-29T06:59:54;9.00;99.90
57753;DHT22;43583;53.132;6.574;2022-12-29T07:02:23;9.00;99.90
57753;DHT22;43583;53.132;6.574;2022-12-29T07:04:51;9.00;99.90
57753;DHT22;43583;53.132;6.574;2022-12-29T07:07:18;9.00;99.90
57753;DHT22;43583;53.132;6.574;2022-12-29T07:09:43;9.00;99.90
57753;DHT22;43583;53.132;6.574;2022-12-29T07:12:09;9.00;99.90
57753;DHT22;43583;53.132;6.574;2022-12-29T07:14:34;9.10;99.90
57753;DHT22;43583;53.132;6.574;2022-12-29T07:17:01;9.10;99.90
57753;DHT22;43583;53.132;6.574;2022-12-29T07:19:27;9.10;99.90
57753;DHT22;43583;53.132;6.574;2022-12-29T07:21:54;9.20;99.90
57753;DHT22;43583;53.132;6.574;2022-12-29T07:24:20;9.20;99.90
57753;DHT22;43583;53.132;6.574;2022-12-29T07:26:45;9.20;99.90
57753;DHT22;43583;53.132;6.574;2022-12-29T07:29:11;9.20;99.90
57753;DHT22;43583;53.132;6.574;2022-12-29T07:31:36;9.20;99.90
57753;DHT22;43583;53.132;6.574;2022-12-29T07:34:02;9.30;99.90
57753;DHT22;43583;53.132;6.574;2022-12-29T07:36:27;9.30;99.90
57753;DHT22;43583;53.132;6.574;2022-12-29T07:38:53;9.30;99.90
57753;DHT22;43583;53.132;6.574;2022-12-29T07:41:19;9.30;99.90
57753;DHT22;43583;53.132;6.574;2022-12-29T07:43:47;9.30;99.90
57753;DHT22;43583;53.132;6.574;2022-12-29T07:46:14;9.40;99.90
57753;DHT22;43583;53.132;6.574;2022-12-29T07:48:39;9.40;99.90
57753;DHT22;43583;53.132;6.574;2022-12-29T07:51:05;9.40;99.90
57753;DHT22;43583;53.132;6.574;2022-12-29T07:53:31;9.40;99.90
57753;DHT22;43583;53.132;6.574;2022-12-29T07:55:57;9.40;99.90
57753;DHT22;43583;53.132;6.574;2022-12-29T07:58:23;9.40;99.90
57753;DHT22;43583;53.132;6.574;2022-12-29T08:00:53;9.40;99.90
57753;DHT22;43583;53.132;6.574;2022-12-29T08:03:19;9.40;99.90
57753;DHT22;43583;53.132;6.574;2022-12-29T08:05:44;9.40;99.90
57753;DHT22;43583;53.132;6.574;2022-12-29T08:08:10;9.50;99.90
57753;DHT22;43583;53.132;6.574;2022-12-29T08:10:35;9.40;99.90
57753;DHT22;43583;53.132;6.574;2022-12-29T08:13:01;9.50;99.90
57753;DHT22;43583;53.132;6.574;2022-12-29T08:15:26;9.50;99.90
57753;DHT22;43583;53.132;6.574;2022-12-29T08:17:52;9.50;99.90
57753;DHT22;43583;53.132;6.574;2022-12-29T08:20:17;9.50;99.90
57753;DHT22;43583;53.132;6.574;2022-12-29T08:22:43;9.50;99.90
57753;DHT22;43583;53.132;6.574;2022-12-29T08:25:09;9.40;99.90
57753;DHT22;43583;53.132;6.574;2022-12-29T08:27:34;9.50;99.90
57753;DHT22;43583;53.132;6.574;2022-12-29T08:30:00;9.50;99.90
57753;DHT22;43583;53.132;6.574;2022-12-29T08:32:26;9.50;99.90
57753;DHT22;43583;53.132;6.574;2022-12-29T08:34:53;9.50;99.90
57753;DHT22;43583;53.132;6.574;2022-12-29T08:37:19;9.50;99.90
57753;DHT22;43583;53.132;6.574;2022-12-29T08:39:45;9.50;99.90
57753;DHT22;43583;53.132;6.574;2022-12-29T08:42:10;9.50;99.90
57753;DHT22;43583;53.132;6.574;2022-12-29T08:44:36;9.50;99.90
57753;DHT22;43583;53.132;6.574;2022-12-29T08:47:01;9.50;99.90
57753;DHT22;43583;53.132;6.574;2022-12-29T08:49:27;9.50;99.90
57753;DHT22;43583;53.132;6.574;2022-12-29T08:51:53;9.50;99.90
57753;DHT22;43583;53.132;6.574;2022-12-29T08:54:18;9.50;99.90
57753;DHT22;43583;53.132;6.574;2022-12-29T08:56:44;9.50;99.90
57753;DHT22;43583;53.132;6.574;2022-12-29T08:59:10;9.50;99.90
57753;DHT22;43583;53.132;6.574;2022-12-29T09:01:36;9.50;99.90
57753;DHT22;43583;53.132;6.574;2022-12-29T09:04:03;9.40;99.90
57753;DHT22;43583;53.132;6.574;2022-12-29T09:06:29;9.40;99.90
57753;DHT22;43583;53.132;6.574;2022-12-29T09:08:55;9.40;99.90
57753;DHT22;43583;53.132;6.574;2022-12-29T09:11:23;9.40;99.90
57753;DHT22;43583;53.132;6.574;2022-12-29T09:13:49;9.40;99.90
57753;DHT22;43583;53.132;6.574;2022-12-29T09:16:16;9.40;99.90
57753;DHT22;43583;53.132;6.574;2022-12-29T09:18:42;9.50;99.90
57753;DHT22;43583;53.132;6.574;2022-12-29T09:21:10;9.50;99.90
57753;DHT22;43583;53.132;6.574;2022-12-29T09:23:36;9.50;99.90
57753;DHT22;43583;53.132;6.574;2022-12-29T09:26:03;9.50;99.90
57753;DHT22;43583;53.132;6.574;2022-12-29T09:28:29;9.40;99.90
57753;DHT22;43583;53.132;6.574;2022-12-29T09:30:56;9.40;99.90
57753;DHT22;43583;53.132;6.574;2022-12-29T09:33:22;9.40;99.90
57753;DHT22;43583;53.132;6.574;2022-12-29T09:35:57;9.30;99.90
57753;DHT22;43583;53.132;6.574;2022-12-29T09:38:23;9.40;99.90
57753;DHT22;43583;53.132;6.574;2022-12-29T09:40:51;9.40;99.90
57753;DHT22;43583;53.132;6.574;2022-12-29T09:43:27;9.40;99.90
57753;DHT22;43583;53.132;6.574;2022-12-29T09:48:34;9.60;99.90
57753;DHT22;43583;53.132;6.574;2022-12-29T09:51:03;9.60;99.90
57753;DHT22;43583;53.132;6.574;2022-12-29T09:53:38;9.60;99.90
57753;DHT22;43583;53.132;6.574;2022-12-29T09:56:05;9.60;99.90
57753;DHT22;43583;53.132;6.574;2022-12-29T09:59:04;9.60;99.90
57753;DHT22;43583;53.132;6.574;2022-12-29T10:01:36;9.60;99.90
57753;DHT22;43583;53.132;6.574;2022-12-29T10:04:04;9.50;99.90
57753;DHT22;43583;53.132;6.574;2022-12-29T10:06:32;9.50;99.90
57753;DHT22;43583;53.132;6.574;2022-12-29T10:09:13;9.50;99.90
57753;DHT22;43583;53.132;6.574;2022-12-29T10:12:06;9.50;99.90
57753;DHT22;43583;53.132;6.574;2022-12-29T10:15:02;9.50;99.90
57753;DHT22;43583;53.132;6.574;2022-12-29T10:17:48;9.50;99.90
57753;DHT22;43583;53.132;6.574;2022-12-29T10:20:24;9.50;99.90
57753;DHT22;43583;53.132;6.574;2022-12-29T10:25:37;9.40;99.90
57753;DHT22;43583;53.132;6.574;2022-12-29T10:28:10;9.40;99.90
57753;DHT22;43583;53.132;6.574;2022-12-29T10:30:41;9.30;99.90
57753;DHT22;43583;53.132;6.574;2022-12-29T10:33:11;9.30;99.90
57753;DHT22;43583;53.132;6.574;2022-12-29T10:35:41;9.30;99.90
57753;DHT22;43583;53.132;6.574;2022-12-29T10:43:56;9.20;99.90
57753;DHT22;43583;53.132;6.574;2022-12-29T10:46:30;9.10;99.90
57753;DHT22;43583;53.132;6.574;2022-12-29T10:48:58;9.10;99.90
57753;DHT22;43583;53.132;6.574;2022-12-29T10:51:25;9.10;99.90
57753;DHT22;43583;53.132;6.574;2022-12-29T10:56:44;9.00;99.90
57753;DHT22;43583;53.132;6.574;2022-12-29T10:59:31;9.00;99.90
57753;DHT22;43583;53.132;6.574;2022-12-29T11:04:49;9.00;99.90
57753;DHT22;43583;53.132;6.574;2022-12-29T11:07:18;9.10;99.90
57753;DHT22;43583;53.132;6.574;2022-12-29T11:09:45;9.20;99.90
57753;DHT22;43583;53.132;6.574;2022-12-29T11:12:24;9.30;99.90
57753;DHT22;43583;53.132;6.574;2022-12-29T11:15:14;9.50;99.90
57753;DHT22;43583;53.132;6.574;2022-12-29T11:17:51;9.60;99.90
57753;DHT22;43583;53.132;6.574;2022-12-29T11:20:36;9.60;99.90
57753;DHT22;43583;53.132;6.574;2022-12-29T11:26:11;9.70;99.90
57753;DHT22;43583;53.132;6.574;2022-12-29T11:28:39;9.80;99.90
57753;DHT22;43583;53.132;6.574;2022-12-29T11:31:06;10.00;99.90
57753;DHT22;43583;53.132;6.574;2022-12-29T11:33:35;10.10;99.90
57753;DHT22;43583;53.132;6.574;2022-12-29T11:36:13;10.10;99.90
57753;DHT22;43583;53.132;6.574;2022-12-29T11:38:48;10.10;99.90
57753;DHT22;43583;53.132;6.574;2022-12-29T11:41:20;10.10;99.90
57753;DHT22;43583;53.132;6.574;2022-12-29T11:43:47;10.10;99.90
57753;DHT22;43583;53.132;6.574;2022-12-29T11:46:18;10.20;99.90
57753;DHT22;43583;53.132;6.574;2022-12-29T11:48:46;10.20;99.90
57753;DHT22;43583;53.132;6.574;2022-12-29T11:51:21;10.20;99.90
57753;DHT22;43583;53.132;6.574;2022-12-29T11:53:50;10.20;99.90
57753;DHT22;43583;53.132;6.574;2022-12-29T11:56:20;10.10;99.90
57753;DHT22;43583;53.132;6.574;2022-12-29T11:58:50;10.00;99.90
57753;DHT22;43583;53.132;6.574;2022-12-29T12:04:12;10.00;99.90
57753;DHT22;43583;53.132;6.574;2022-12-29T12:09:46;10.00;99.90
57753;DHT22;43583;53.132;6.574;2022-12-29T12:12:28;9.90;99.90
57753;DHT22;43583;53.132;6.574;2022-12-29T12:14:57;9.90;99.90
57753;DHT22;43583;53.132;6.574;2022-12-29T12:17:32;9.80;99.90
57753;DHT22;43583;53.132;6.574;2022-12-29T12:20:18;9.70;99.90
57753;DHT22;43583;53.132;6.574;2022-12-29T12:23:20;9.70;99.90
57753;DHT22;43583;53.132;6.574;2022-12-29T12:26:09;9.80;99.90
57753;DHT22;43583;53.132;6.574;2022-12-29T12:28:54;9.80;99.90
57753;DHT22;43583;53.132;6.574;2022-12-29T12:31:24;9.80;99.90
57753;DHT22;43583;53.132;6.574;2022-12-29T12:34:02;9.70;99.90
57753;DHT22;43583;53.132;6.574;2022-12-29T12:42:56;9.60;99.90
57753;DHT22;43583;53.132;6.574;2022-12-29T12:49:07;9.70;99.90
57753;DHT22;43583;53.132;6.574;2022-12-29T12:59:42;9.90;99.90
57753;DHT22;43583;53.132;6.574;2022-12-29T13:10:55;9.90;99.90
57753;DHT22;43583;53.132;6.574;2022-12-29T13:22:13;9.70;99.90
57753;DHT22;43583;53.132;6.574;2022-12-29T13:30:38;9.50;99.90
57753;DHT22;43583;53.132;6.574;2022-12-29T13:38:26;9.40;99.90
57753;DHT22;43583;53.132;6.574;2022-12-29T13:41:01;9.40;99.90
57753;DHT22;43583;53.132;6.574;2022-12-29T13:43:32;9.40;99.90
57753;DHT22;43583;53.132;6.574;2022-12-29T13:46:09;9.40;99.90
57753;DHT22;43583;53.132;6.574;2022-12-29T13:48:40;9.50;99.90
57753;DHT22;43583;53.132;6.574;2022-12-29T13:51:08;9.40;99.90
57753;DHT22;43583;53.132;6.574;2022-12-29T13:59:40;9.40;99.90
57753;DHT22;43583;53.132;6.574;2022-12-29T14:05:05;9.30;99.90
57753;DHT22;43583;53.132;6.574;2022-12-29T14:07:37;9.30;99.90
57753;DHT22;43583;53.132;6.574;2022-12-29T14:10:04;9.20;99.90
57753;DHT22;43583;53.132;6.574;2022-12-29T14:12:38;9.20;99.90
57753;DHT22;43583;53.132;6.574;2022-12-29T14:17:34;9.20;99.90
57753;DHT22;43583;53.132;6.574;2022-12-29T14:19:59;9.20;99.90
57753;DHT22;43583;53.132;6.574;2022-12-29T14:22:27;9.20;99.90
57753;DHT22;43583;53.132;6.574;2022-12-29T14:24:53;9.10;99.90
57753;DHT22;43583;53.132;6.574;2022-12-29T14:29:51;9.10;99.90
57753;DHT22;43583;53.132;6.574;2022-12-29T14:34:57;9.00;99.90
57753;DHT22;43583;53.132;6.574;2022-12-29T14:37:35;8.90;99.90
57753;DHT22;43583;53.132;6.574;2022-12-29T14:40:24;8.90;99.90
57753;DHT22;43583;53.132;6.574;2022-12-29T14:42:55;8.90;99.90
57753;DHT22;43583;53.132;6.574;2022-12-29T14:45:27;8.80;99.90
57753;DHT22;43583;53.132;6.574;2022-12-29T14:47:54;8.80;99.90
57753;DHT22;43583;53.132;6.574;2022-12-29T14:50:39;8.70;99.90
57753;DHT22;43583;53.132;6.574;2022-12-29T14:53:06;8.70;99.90
57753;DHT22;43583;53.132;6.574;2022-12-29T14:55:41;8.70;99.90
57753;DHT22;43583;53.132;6.574;2022-12-29T14:58:31;8.60;99.90
57753;DHT22;43583;53.132;6.574;2022-12-29T15:00:58;8.50;99.90
57753;DHT22;43583;53.132;6.574;2022-12-29T15:03:29;8.50;99.90
57753;DHT22;43583;53.132;6.574;2022-12-29T15:06:04;8.50;99.90
57753;DHT22;43583;53.132;6.574;2022-12-29T15:08:36;8.40;99.90
57753;DHT22;43583;53.132;6.574;2022-12-29T15:11:17;8.40;99.90
57753;DHT22;43583;53.132;6.574;2022-12-29T15:13:44;8.40;99.90
57753;DHT22;43583;53.132;6.574;2022-12-29T15:16:32;8.30;99.90
57753;DHT22;43583;53.132;6.574;2022-12-29T15:18:58;8.30;99.90
57753;DHT22;43583;53.132;6.574;2022-12-29T15:21:27;8.30;99.90
57753;DHT22;43583;53.132;6.574;2022-12-29T15:23:52;8.30;99.90
57753;DHT22;43583;53.132;6.574;2022-12-29T15:26:19;8.20;99.90
57753;DHT22;43583;53.132;6.574;2022-12-29T15:28:52;8.20;99.90
57753;DHT22;43583;53.132;6.574;2022-12-29T15:31:23;8.20;99.90
57753;DHT22;43583;53.132;6.574;2022-12-29T15:33:54;8.10;99.90
57753;DHT22;43583;53.132;6.574;2022-12-29T15:36:26;8.10;99.90
57753;DHT22;43583;53.132;6.574;2022-12-29T15:38:52;8.10;99.90
57753;DHT22;43583;53.132;6.574;2022-12-29T15:44:39;8.10;99.90
57753;DHT22;43583;53.132;6.574;2022-12-29T15:47:16;8.00;99.90
57753;DHT22;43583;53.132;6.574;2022-12-29T15:49:45;8.00;99.90
57753;DHT22;43583;53.132;6.574;2022-12-29T15:52:18;8.00;99.90
57753;DHT22;43583;53.132;6.574;2022-12-29T15:54:44;8.00;99.90
57753;DHT22;43583;53.132;6.574;2022-12-29T15:57:26;8.00;99.90
57753;DHT22;43583;53.132;6.574;2022-12-29T15:59:52;7.90;99.90
57753;DHT22;43583;53.132;6.574;2022-12-29T16:02:20;7.90;99.90
57753;DHT22;43583;53.132;6.574;2022-12-29T16:04:48;7.90;99.90
57753;DHT22;43583;53.132;6.574;2022-12-29T16:07:32;7.90;99.90
57753;DHT22;43583;53.132;6.574;2022-12-29T16:10:01;7.90;99.90
57753;DHT22;43583;53.132;6.574;2022-12-29T16:12:32;8.00;99.90
57753;DHT22;43583;53.132;6.574;2022-12-29T16:15:00;8.00;99.90
57753;DHT22;43583;53.132;6.574;2022-12-29T16:17:29;8.10;99.90
57753;DHT22;43583;53.132;6.574;2022-12-29T16:19:58;8.10;99.90
57753;DHT22;43583;53.132;6.574;2022-12-29T16:22:48;8.20;99.90
57753;DHT22;43583;53.132;6.574;2022-12-29T16:27:49;8.20;99.90
57753;DHT22;43583;53.132;6.574;2022-12-29T16:30:17;8.30;99.90
57753;DHT22;43583;53.132;6.574;2022-12-29T16:32:49;8.30;99.90
57753;DHT22;43583;53.132;6.574;2022-12-29T16:35:19;8.30;99.90
57753;DHT22;43583;53.132;6.574;2022-12-29T16:37:46;8.20;99.90
57753;DHT22;43583;53.132;6.574;2022-12-29T16:40:22;8.10;99.90
57753;DHT22;43583;53.132;6.574;2022-12-29T16:42:49;7.90;99.90
57753;DHT22;43583;53.132;6.574;2022-12-29T16:50:30;7.50;99.90
57753;DHT22;43583;53.132;6.574;2022-12-29T16:52:56;7.40;99.90
57753;DHT22;43583;53.132;6.574;2022-12-29T16:55:21;7.30;99.90
57753;DHT22;43583;53.132;6.574;2022-12-29T16:57:49;7.30;99.90
57753;DHT22;43583;53.132;6.574;2022-12-29T17:00:31;7.20;99.90
57753;DHT22;43583;53.132;6.574;2022-12-29T17:03:00;7.20;99.90
57753;DHT22;43583;53.132;6.574;2022-12-29T17:05:26;7.10;99.90
57753;DHT22;43583;53.132;6.574;2022-12-29T17:07:51;7.10;99.90
57753;DHT22;43583;53.132;6.574;2022-12-29T17:10:18;7.10;99.90
57753;DHT22;43583;53.132;6.574;2022-12-29T17:12:46;7.10;99.90
57753;DHT22;43583;53.132;6.574;2022-12-29T17:15:18;7.10;99.90
57753;DHT22;43583;53.132;6.574;2022-12-29T17:17:47;7.10;99.90
57753;DHT22;43583;53.132;6.574;2022-12-29T17:20:22;7.10;99.90
57753;DHT22;43583;53.132;6.574;2022-12-29T17:22:48;7.20;99.90
57753;DHT22;43583;53.132;6.574;2022-12-29T17:25:21;7.30;99.90
57753;DHT22;43583;53.132;6.574;2022-12-29T17:27:59;7.40;99.90
57753;DHT22;43583;53.132;6.574;2022-12-29T17:30:27;7.40;99.90
57753;DHT22;43583;53.132;6.574;2022-12-29T17:33:04;7.40;99.90
57753;DHT22;43583;53.132;6.574;2022-12-29T17:35:30;7.40;99.90
57753;DHT22;43583;53.132;6.574;2022-12-29T17:37:56;7.40;99.90
57753;DHT22;43583;53.132;6.574;2022-12-29T17:40:27;7.50;99.90
57753;DHT22;43583;53.132;6.574;2022-12-29T17:42:55;7.40;99.90
57753;DHT22;43583;53.132;6.574;2022-12-29T17:45:24;7.40;99.90
57753;DHT22;43583;53.132;6.574;2022-12-29T17:47:51;7.40;99.90
57753;DHT22;43583;53.132;6.574;2022-12-29T17:50:19;7.30;99.90
57753;DHT22;43583;53.132;6.574;2022-12-29T17:52:51;7.30;99.90
57753;DHT22;43583;53.132;6.574;2022-12-29T17:55:19;7.30;99.90
57753;DHT22;43583;53.132;6.574;2022-12-29T17:57:45;7.30;99.90
57753;DHT22;43583;53.132;6.574;2022-12-29T18:00:16;7.30;99.90
57753;DHT22;43583;53.132;6.574;2022-12-29T18:02:43;7.30;99.90
57753;DHT22;43583;53.132;6.574;2022-12-29T18:05:18;7.30;99.90
57753;DHT22;43583;53.132;6.574;2022-12-29T18:07:45;7.30;99.90
57753;DHT22;43583;53.132;6.574;2022-12-29T18:10:11;7.30;99.90